Terminal Aerodrome Forecast
Issued by NWS Detroit/Pontiac, MI

Home | Current Version | Previous Version | Text Only | Print | Product List | Glossary On
Versions: 1 2 3 4 5 6 7 8 9 10 11 12 13 14 15 16 17 18 19
017
FTUS43 KDTX 240831 AAA
TAFFNT
TAF AMD
KFNT 240831Z 2409/2506 18005KT P6SM -SHRA SCT060 BKN080
      TEMPO 2409/2413 5SM SHRA BKN060
     FM241300 22013KT P6SM -SHRA BKN040 OVC080
     FM241800 22013G20KT P6SM SCT050 BKN100
     FM250100 20007KT P6SM BKN100 OVC250 PROB30 2501/2504 3SM TSRA
      OVC040CB=

USA.gov is the U.S. government's official web portal to all federal, state and local government web resources and services.